PWSweather.com
Personal Weather Stations
Station Observations
J24K28P63
Vysocina, PocatkyCZ 39464

VysocinaPocatkyCZ 39464

Lat: 49.2594238, Lon: 15.2331769

Elevation: 2011

Station Type: Vantage Pro2+

http://meteo-jirkalina.com

High Low Average
Temperature 81.7°F27.6°C 54.7°F12.6°C 70.5°F21.4°C
Dew Point 57.9°F14.4°C 39.6°F4.2°C 53.5°F11.9°C
Winds 10.0 mph 16.1 kmh Calm Calm 3.0 mph W4.8 kmh W
Wind Gusts 16.0 mph25.7 kmh -- 6.0 mph9.7 kmh
Humidity 96% 27% 58%
Pressure 30.11 in1019.6 mb 29.98 in1015.2 mb -
Precipitation 0.00 in0.0 mm - -
Hour Temp Dew Point Humidity Winds Wind Gusts Pressure Precip Precip Rate Daily Precip Total
12:00 AM 61.3°F16.3°C 56.8°F13.8°C 85% Calm Calm -- 29.98 in1015.2 mb - 0.00 in0.0 mm 0.00 in0.0 mm
12:30 AM 60.5°F15.8°C 56.3°F13.5°C 86% Calm Calm -- 29.98 in1015.2 mb - 0.00 in0.0 mm 0.00 in0.0 mm
01:00 AM 59.5°F15.3°C 55.9°F13.3°C 88% Calm Calm -- 29.98 in1015.2 mb - 0.00 in0.0 mm 0.00 in0.0 mm
01:30 AM 59.5°F15.3°C 55.9°F13.3°C 88% Calm Calm -- 29.98 in1015.2 mb - 0.00 in0.0 mm 0.00 in0.0 mm
02:00 AM 59.3°F15.2°C 56.1°F13.4°C 89% Calm Calm -- 29.98 in1015.2 mb - 0.00 in0.0 mm 0.00 in0.0 mm
02:30 AM 58.1°F14.5°C 55.2°F12.9°C 90% Calm Calm -- 29.98 in1015.2 mb - 0.00 in0.0 mm 0.00 in0.0 mm
03:00 AM 57.2°F14.0°C 54.9°F12.7°C 92% Calm Calm -- 29.98 in1015.2 mb - 0.00 in0.0 mm 0.00 in0.0 mm
03:30 AM 56.2°F13.4°C 53.9°F12.2°C 92% Calm Calm -- 29.98 in1015.2 mb - 0.00 in0.0 mm 0.00 in0.0 mm
04:00 AM 55.7°F13.2°C 53.7°F12.1°C 93% Calm Calm -- 29.99 in1015.6 mb - 0.00 in0.0 mm 0.00 in0.0 mm
04:20 AM 55.9°F13.3°C 53.9°F12.2°C 93% 1.0 mph WSW1.6 kmh WSW 2.0 mph3.2 kmh 30.06 in1017.9 mb - 0.00 in0.0 mm 0.00 in0.0 mm
04:30 AM 54.7°F12.6°C 53.3°F11.8°C 95% Calm Calm -- 30.00 in1015.9 mb - 0.00 in0.0 mm 0.00 in0.0 mm
04:40 AM 56.4°F13.6°C 54.1°F12.3°C 92% 2.0 mph WSW3.2 kmh WSW 3.0 mph4.8 kmh 30.07 in1018.3 mb - 0.00 in0.0 mm 0.00 in0.0 mm
04:50 AM 56.9°F13.8°C 54.6°F12.6°C 92% 2.0 mph WSW3.2 kmh WSW 5.0 mph8.0 kmh 30.07 in1018.3 mb - 0.00 in0.0 mm 0.00 in0.0 mm
05:00 AM 55.2°F12.9°C 54.0°F12.2°C 96% 0.4 mph WSW0.6 kmh WSW 2.0 mph3.2 kmh 30.00 in1015.9 mb - 0.00 in0.0 mm 0.00 in0.0 mm
05:10 AM 58.2°F14.6°C 55.2°F12.9°C 90% 3.0 mph WSW4.8 kmh WSW 7.0 mph11.3 kmh 30.07 in1018.3 mb - 0.00 in0.0 mm 0.00 in0.0 mm
05:20 AM 59.1°F15.1°C 55.5°F13.1°C 88% 3.0 mph W4.8 kmh W 6.0 mph9.7 kmh 30.07 in1018.3 mb - 0.00 in0.0 mm 0.00 in0.0 mm
05:30 AM 57.0°F13.9°C 54.7°F12.6°C 92% 0.8 mph W1.3 kmh W 2.0 mph3.2 kmh 30.01 in1016.3 mb - 0.00 in0.0 mm 0.00 in0.0 mm
05:40 AM 60.7°F15.9°C 55.8°F13.2°C 84% 3.0 mph W4.8 kmh W 3.0 mph4.8 kmh 30.07 in1018.3 mb - 0.00 in0.0 mm 0.00 in0.0 mm
05:50 AM 60.5°F15.8°C 56.0°F13.3°C 85% 3.0 mph W4.8 kmh W 3.0 mph4.8 kmh 30.07 in1018.3 mb - 0.00 in0.0 mm 0.00 in0.0 mm
06:00 AM 62.6°F17.0°C 57.0°F13.9°C 82% 3.0 mph W4.8 kmh W 7.0 mph11.3 kmh 30.07 in1018.3 mb - 0.00 in0.0 mm 0.00 in0.0 mm
06:10 AM 64.4°F18.0°C 57.4°F14.1°C 78% 3.0 mph W4.8 kmh W 3.0 mph4.8 kmh 30.07 in1018.3 mb - 0.00 in0.0 mm 0.00 in0.0 mm
06:20 AM 65.9°F18.8°C 57.4°F14.1°C 74% 3.0 mph W4.8 kmh W 7.0 mph11.3 kmh 30.07 in1018.3 mb - 0.00 in0.0 mm 0.00 in0.0 mm
06:30 AM 63.9°F17.7°C 53.9°F12.2°C 70% 2.0 mph W3.2 kmh W 4.0 mph6.4 kmh 30.02 in1016.6 mb - 0.00 in0.0 mm 0.00 in0.0 mm
06:40 AM 68.9°F20.5°C 57.9°F14.4°C 68% 2.0 mph WSW3.2 kmh WSW 3.0 mph4.8 kmh 30.07 in1018.3 mb - 0.00 in0.0 mm 0.00 in0.0 mm
06:50 AM 69.7°F20.9°C 57.4°F14.1°C 65% 1.0 mph WSW1.6 kmh WSW 6.0 mph9.7 kmh 30.07 in1018.3 mb - 0.00 in0.0 mm 0.00 in0.0 mm
07:00 AM 70.1°F21.2°C 56.5°F13.6°C 62% 3.0 mph W4.8 kmh W 3.0 mph4.8 kmh 30.07 in1018.3 mb - 0.00 in0.0 mm 0.00 in0.0 mm
07:10 AM 71.3°F21.8°C 57.1°F13.9°C 61% 3.0 mph W4.8 kmh W 8.0 mph12.9 kmh 30.07 in1018.3 mb - 0.00 in0.0 mm 0.00 in0.0 mm
07:20 AM 72.2°F22.3°C 57.0°F13.9°C 59% 3.0 mph WNW4.8 kmh WNW 3.0 mph4.8 kmh 30.07 in1018.3 mb - 0.00 in0.0 mm 0.00 in0.0 mm
07:30 AM 66.9°F19.4°C 51.6°F10.9°C 58% 1.2 mph N1.9 kmh N 2.0 mph3.2 kmh 30.02 in1016.6 mb - 0.00 in0.0 mm 0.00 in0.0 mm
07:40 AM 72.6°F22.6°C 56.0°F13.3°C 56% 3.0 mph NW4.8 kmh NW 7.0 mph11.3 kmh 30.08 in1018.6 mb - 0.00 in0.0 mm 0.00 in0.0 mm
07:50 AM 72.1°F22.3°C 56.5°F13.6°C 58% 2.0 mph WNW3.2 kmh WNW 5.0 mph8.0 kmh 30.08 in1018.6 mb - 0.00 in0.0 mm 0.00 in0.0 mm
08:00 AM 72.9°F22.7°C 56.7°F13.7°C 57% 5.0 mph W8.0 kmh W 8.0 mph12.9 kmh 30.09 in1019.0 mb - 0.00 in0.0 mm 0.00 in0.0 mm
08:10 AM 73.0°F22.8°C 54.9°F12.7°C 53% 3.0 mph NW4.8 kmh NW 5.0 mph8.0 kmh 30.09 in1019.0 mb - 0.00 in0.0 mm 0.00 in0.0 mm
08:20 AM 74.9°F23.8°C 56.6°F13.7°C 53% 3.0 mph WNW4.8 kmh WNW 6.0 mph9.7 kmh 30.09 in1019.0 mb - 0.00 in0.0 mm 0.00 in0.0 mm
08:30 AM 69.7°F20.9°C 48.5°F9.2°C 47% 1.5 mph N2.4 kmh N 7.0 mph11.3 kmh 30.03 in1016.9 mb - 0.00 in0.0 mm 0.00 in0.0 mm
08:40 AM 76.2°F24.6°C 57.8°F14.3°C 53% 3.0 mph NW4.8 kmh NW 3.0 mph4.8 kmh 30.09 in1019.0 mb - 0.00 in0.0 mm 0.00 in0.0 mm
08:50 AM 75.9°F24.4°C 56.4°F13.6°C 51% 3.0 mph NW4.8 kmh NW 5.0 mph8.0 kmh 30.10 in1019.3 mb - 0.00 in0.0 mm 0.00 in0.0 mm
09:00 AM 76.1°F24.5°C 55.0°F12.8°C 48% 1.0 mph WNW1.6 kmh WNW 3.0 mph4.8 kmh 30.09 in1019.0 mb - 0.00 in0.0 mm 0.00 in0.0 mm
09:10 AM 75.6°F24.2°C 55.1°F12.8°C 49% 2.0 mph NNW3.2 kmh NNW 3.0 mph4.8 kmh 30.10 in1019.3 mb - 0.00 in0.0 mm 0.00 in0.0 mm
09:20 AM 76.9°F24.9°C 55.1°F12.8°C 47% 2.0 mph NW3.2 kmh NW 5.0 mph8.0 kmh 30.10 in1019.3 mb - 0.00 in0.0 mm 0.00 in0.0 mm
09:30 AM 71.1°F21.7°C 44.9°F7.2°C 39% 5.5 mph WNW8.9 kmh WNW 16.0 mph25.7 kmh 30.04 in1017.3 mb - 0.00 in0.0 mm 0.00 in0.0 mm
09:40 AM 78.3°F25.7°C 54.6°F12.6°C 44% Calm Calm 3.0 mph4.8 kmh 30.10 in1019.3 mb - 0.00 in0.0 mm 0.00 in0.0 mm
09:50 AM 78.2°F25.7°C 55.1°F12.8°C 45% 1.0 mph W1.6 kmh W 3.0 mph4.8 kmh 30.10 in1019.3 mb - 0.00 in0.0 mm 0.00 in0.0 mm
10:00 AM 79.1°F26.2°C 55.3°F12.9°C 44% 2.0 mph NW3.2 kmh NW 7.0 mph11.3 kmh 30.09 in1019.0 mb - 0.00 in0.0 mm 0.00 in0.0 mm
10:10 AM 78.2°F25.7°C 55.7°F13.2°C 46% 1.0 mph WNW1.6 kmh WNW 3.0 mph4.8 kmh 30.09 in1019.0 mb - 0.00 in0.0 mm 0.00 in0.0 mm
10:20 AM 79.1°F26.2°C 54.1°F12.3°C 42% 2.0 mph S3.2 kmh S 3.0 mph4.8 kmh 30.09 in1019.0 mb - 0.00 in0.0 mm 0.00 in0.0 mm
10:30 AM 71.5°F21.9°C 44.5°F6.9°C 38% 1.8 mph NW2.9 kmh NW 5.0 mph8.0 kmh 30.05 in1017.6 mb - 0.00 in0.0 mm 0.00 in0.0 mm
10:40 AM 80.5°F26.9°C 54.7°F12.6°C 41% 5.0 mph WSW8.0 kmh WSW 7.0 mph11.3 kmh 30.09 in1019.0 mb - 0.00 in0.0 mm 0.00 in0.0 mm
10:50 AM 81.7°F27.6°C 53.7°F12.1°C 38% 5.0 mph SW8.0 kmh SW 8.0 mph12.9 kmh 30.09 in1019.0 mb - 0.00 in0.0 mm 0.00 in0.0 mm
11:00 AM 81.5°F27.5°C 53.4°F11.9°C 38% 1.0 mph SW1.6 kmh SW 3.0 mph4.8 kmh 30.10 in1019.3 mb - 0.00 in0.0 mm 0.00 in0.0 mm
11:10 AM 79.8°F26.6°C 52.6°F11.4°C 39% 7.0 mph SW11.3 kmh SW 12.0 mph19.3 kmh 30.09 in1019.0 mb - 0.00 in0.0 mm 0.00 in0.0 mm
11:20 AM 80.6°F27.0°C 53.4°F11.9°C 39% 5.0 mph SW8.0 kmh SW 7.0 mph11.3 kmh 30.09 in1019.0 mb - 0.00 in0.0 mm 0.00 in0.0 mm
11:30 AM 72.6°F22.6°C 43.4°F6.3°C 35% 1.3 mph N2.1 kmh N 6.0 mph9.7 kmh 30.04 in1017.3 mb - 0.00 in0.0 mm 0.00 in0.0 mm
11:40 AM 78.9°F26.1°C 53.8°F12.1°C 42% 1.0 mph W1.6 kmh W 2.0 mph3.2 kmh 30.09 in1019.0 mb - 0.00 in0.0 mm 0.00 in0.0 mm
11:50 AM 78.8°F26.0°C 54.4°F12.4°C 43% 6.0 mph W9.7 kmh W 9.0 mph14.5 kmh 30.09 in1019.0 mb - 0.00 in0.0 mm 0.00 in0.0 mm
12:00 PM 72.0°F22.2°C 45.7°F7.6°C 39% 1.9 mph WNW3.1 kmh WNW 5.0 mph8.0 kmh 30.05 in1017.6 mb - 0.00 in0.0 mm 0.00 in0.0 mm
12:10 PM 78.2°F25.7°C 53.9°F12.2°C 43% 6.0 mph W9.7 kmh W 9.0 mph14.5 kmh 30.09 in1019.0 mb - 0.00 in0.0 mm 0.00 in0.0 mm
12:20 PM 76.5°F24.7°C 54.2°F12.3°C 46% 8.0 mph SW12.9 kmh SW 12.0 mph19.3 kmh 30.09 in1019.0 mb - 0.00 in0.0 mm 0.00 in0.0 mm
12:30 PM 72.8°F22.7°C 43.6°F6.4°C 35% 4.1 mph W6.6 kmh W 7.0 mph11.3 kmh 30.05 in1017.6 mb - 0.00 in0.0 mm 0.00 in0.0 mm
12:40 PM 75.6°F24.2°C 54.5°F12.5°C 48% 5.0 mph WSW8.0 kmh WSW 7.0 mph11.3 kmh 30.09 in1019.0 mb - 0.00 in0.0 mm 0.00 in0.0 mm
12:50 PM 75.9°F24.4°C 54.8°F12.7°C 48% 3.0 mph SW4.8 kmh SW 7.0 mph11.3 kmh 30.09 in1019.0 mb - 0.00 in0.0 mm 0.00 in0.0 mm
01:00 PM 77.2°F25.1°C 55.4°F13.0°C 47% 5.0 mph SW8.0 kmh SW 12.0 mph19.3 kmh 30.09 in1019.0 mb - 0.00 in0.0 mm 0.00 in0.0 mm
01:10 PM 77.0°F25.0°C 54.6°F12.6°C 46% 8.0 mph W12.9 kmh W 12.0 mph19.3 kmh 30.09 in1019.0 mb - 0.00 in0.0 mm 0.00 in0.0 mm
01:20 PM 76.0°F24.4°C 54.9°F12.7°C 48% 6.0 mph WNW9.7 kmh WNW 9.0 mph14.5 kmh 30.09 in1019.0 mb - 0.00 in0.0 mm 0.00 in0.0 mm
01:30 PM 73.2°F22.9°C 45.4°F7.4°C 37% 1.3 mph NW2.1 kmh NW 2.0 mph3.2 kmh 30.04 in1017.3 mb - 0.00 in0.0 mm 0.00 in0.0 mm
01:40 PM 80.0°F26.7°C 56.1°F13.4°C 44% 9.0 mph WNW14.5 kmh WNW 15.0 mph24.1 kmh 30.09 in1019.0 mb - 0.00 in0.0 mm 0.00 in0.0 mm
01:50 PM 79.9°F26.6°C 56.0°F13.3°C 44% 8.0 mph WSW12.9 kmh WSW 13.0 mph20.9 kmh 30.10 in1019.3 mb - 0.00 in0.0 mm 0.00 in0.0 mm
02:00 PM 77.9°F25.5°C 55.4°F13.0°C 46% 7.0 mph W11.3 kmh W 13.0 mph20.9 kmh 30.09 in1019.0 mb - 0.00 in0.0 mm 0.00 in0.0 mm
02:10 PM 76.3°F24.6°C 55.2°F12.9°C 48% 6.0 mph WNW9.7 kmh WNW 12.0 mph19.3 kmh 30.09 in1019.0 mb - 0.00 in0.0 mm 0.00 in0.0 mm
02:20 PM 76.3°F24.6°C 55.7°F13.2°C 49% 8.0 mph WNW12.9 kmh WNW 10.0 mph16.1 kmh 30.09 in1019.0 mb - 0.00 in0.0 mm 0.00 in0.0 mm
02:30 PM 76.0°F24.4°C 39.6°F4.2°C 27% 4.2 mph WNW6.8 kmh WNW 12.0 mph19.3 kmh 30.03 in1016.9 mb - 0.00 in0.0 mm 0.00 in0.0 mm
02:40 PM 78.5°F25.8°C 56.0°F13.3°C 46% 5.0 mph WSW8.0 kmh WSW 6.0 mph9.7 kmh 30.09 in1019.0 mb - 0.00 in0.0 mm 0.00 in0.0 mm
02:50 PM 78.6°F25.9°C 55.5°F13.1°C 45% 3.0 mph W4.8 kmh W 5.0 mph8.0 kmh 30.09 in1019.0 mb - 0.00 in0.0 mm 0.00 in0.0 mm
03:00 PM 74.0°F23.3°C 41.4°F5.2°C 31% 1.2 mph WNW1.9 kmh WNW 4.0 mph6.4 kmh 30.03 in1016.9 mb - 0.00 in0.0 mm 0.00 in0.0 mm
03:10 PM 77.4°F25.2°C 55.0°F12.8°C 46% 3.0 mph WSW4.8 kmh WSW 5.0 mph8.0 kmh 30.09 in1019.0 mb - 0.00 in0.0 mm 0.00 in0.0 mm
03:20 PM 76.5°F24.7°C 55.4°F13.0°C 48% 8.0 mph W12.9 kmh W 9.0 mph14.5 kmh 30.09 in1019.0 mb - 0.00 in0.0 mm 0.00 in0.0 mm
03:30 PM 72.8°F22.7°C 44.3°F6.8°C 36% 0.4 mph NW0.6 kmh NW 3.0 mph4.8 kmh 30.03 in1016.9 mb - 0.00 in0.0 mm 0.00 in0.0 mm
03:40 PM 77.7°F25.4°C 55.9°F13.3°C 47% 5.0 mph WSW8.0 kmh WSW 8.0 mph12.9 kmh 30.09 in1019.0 mb - 0.00 in0.0 mm 0.00 in0.0 mm
03:50 PM 79.4°F26.3°C 56.8°F13.8°C 46% 10.0 mph W16.1 kmh W 14.0 mph22.5 kmh 30.09 in1019.0 mb - 0.00 in0.0 mm 0.00 in0.0 mm
04:00 PM 77.0°F25.0°C 55.8°F13.2°C 48% 8.0 mph W12.9 kmh W 10.0 mph16.1 kmh 30.09 in1019.0 mb - 0.00 in0.0 mm 0.00 in0.0 mm
04:10 PM 78.4°F25.8°C 55.9°F13.3°C 46% 8.0 mph WSW12.9 kmh WSW 12.0 mph19.3 kmh 30.09 in1019.0 mb - 0.00 in0.0 mm 0.00 in0.0 mm
04:20 PM 76.7°F24.8°C 56.1°F13.4°C 49% 6.0 mph W9.7 kmh W 14.0 mph22.5 kmh 30.09 in1019.0 mb - 0.00 in0.0 mm 0.00 in0.0 mm
04:30 PM 74.6°F23.7°C 42.8°F6.0°C 32% 5.9 mph WNW9.5 kmh WNW 13.0 mph20.9 kmh 30.03 in1016.9 mb - 0.00 in0.0 mm 0.00 in0.0 mm
04:40 PM 76.7°F24.8°C 55.0°F12.8°C 47% 6.0 mph W9.7 kmh W 9.0 mph14.5 kmh 30.09 in1019.0 mb - 0.00 in0.0 mm 0.00 in0.0 mm
04:50 PM 76.4°F24.7°C 55.3°F12.9°C 48% 8.0 mph W12.9 kmh W 12.0 mph19.3 kmh 30.09 in1019.0 mb - 0.00 in0.0 mm 0.00 in0.0 mm
05:00 PM 77.2°F25.1°C 53.6°F12.0°C 44% 9.0 mph NW14.5 kmh NW 15.0 mph24.1 kmh 30.09 in1019.0 mb - 0.00 in0.0 mm 0.00 in0.0 mm
05:10 PM 76.9°F24.9°C 54.5°F12.5°C 46% 5.0 mph NW8.0 kmh NW 5.0 mph8.0 kmh 30.09 in1019.0 mb - 0.00 in0.0 mm 0.00 in0.0 mm
05:20 PM 75.8°F24.3°C 55.3°F12.9°C 49% 3.0 mph WNW4.8 kmh WNW 10.0 mph16.1 kmh 30.09 in1019.0 mb - 0.00 in0.0 mm 0.00 in0.0 mm
05:30 PM 70.3°F21.3°C 46.1°F7.8°C 42% Calm Calm -- 30.04 in1017.3 mb - 0.00 in0.0 mm 0.00 in0.0 mm
05:40 PM 76.3°F24.6°C 53.4°F11.9°C 45% 7.0 mph NNW11.3 kmh NNW 12.0 mph19.3 kmh 30.09 in1019.0 mb - 0.00 in0.0 mm 0.00 in0.0 mm
05:50 PM 76.5°F24.7°C 53.0°F11.7°C 44% 8.0 mph WNW12.9 kmh WNW 13.0 mph20.9 kmh 30.09 in1019.0 mb - 0.00 in0.0 mm 0.00 in0.0 mm
06:00 PM 70.0°F21.1°C 45.2°F7.3°C 41% 0.3 mph W0.5 kmh W 1.0 mph1.6 kmh 30.04 in1017.3 mb - 0.00 in0.0 mm 0.00 in0.0 mm
06:10 PM 75.2°F24.0°C 54.2°F12.3°C 48% 7.0 mph WNW11.3 kmh WNW 12.0 mph19.3 kmh 30.09 in1019.0 mb - 0.00 in0.0 mm 0.00 in0.0 mm
06:20 PM 74.7°F23.7°C 52.5°F11.4°C 46% 3.0 mph W4.8 kmh W 8.0 mph12.9 kmh 30.09 in1019.0 mb - 0.00 in0.0 mm 0.00 in0.0 mm
06:30 PM 68.4°F20.2°C 45.6°F7.6°C 44% Calm Calm -- 30.05 in1017.6 mb - 0.00 in0.0 mm 0.00 in0.0 mm
06:40 PM 73.5°F23.1°C 52.6°F11.4°C 48% 6.0 mph WNW9.7 kmh WNW 7.0 mph11.3 kmh 30.09 in1019.0 mb - 0.00 in0.0 mm 0.00 in0.0 mm
06:50 PM 72.8°F22.7°C 53.1°F11.7°C 50% 3.0 mph WNW4.8 kmh WNW 3.0 mph4.8 kmh 30.10 in1019.3 mb - 0.00 in0.0 mm 0.00 in0.0 mm
07:00 PM 72.3°F22.4°C 53.7°F12.1°C 52% 5.0 mph W8.0 kmh W 6.0 mph9.7 kmh 30.10 in1019.3 mb - 0.00 in0.0 mm 0.00 in0.0 mm
07:10 PM 71.5°F21.9°C 53.0°F11.7°C 52% 5.0 mph WNW8.0 kmh WNW 7.0 mph11.3 kmh 30.10 in1019.3 mb - 0.00 in0.0 mm 0.00 in0.0 mm
07:20 PM 70.1°F21.2°C 53.2°F11.8°C 55% 1.0 mph WNW1.6 kmh WNW 2.0 mph3.2 kmh 30.10 in1019.3 mb - 0.00 in0.0 mm 0.00 in0.0 mm
07:30 PM 64.8°F18.2°C 51.1°F10.6°C 61% Calm Calm -- 30.06 in1017.9 mb - 0.00 in0.0 mm 0.00 in0.0 mm
07:40 PM 67.9°F19.9°C 53.5°F11.9°C 60% Calm Calm 2.0 mph3.2 kmh 30.11 in1019.6 mb - 0.00 in0.0 mm 0.00 in0.0 mm
07:50 PM 67.0°F19.4°C 53.1°F11.7°C 61% Calm Calm 3.0 mph4.8 kmh 30.11 in1019.6 mb - 0.00 in0.0 mm 0.00 in0.0 mm
08:00 PM 63.1°F17.3°C 52.4°F11.3°C 68% Calm Calm -- 30.06 in1017.9 mb - 0.00 in0.0 mm 0.00 in0.0 mm
08:30 PM 61.2°F16.2°C 53.6°F12.0°C 76% Calm Calm -- 30.07 in1018.3 mb - 0.00 in0.0 mm 0.00 in0.0 mm
09:00 PM 60.2°F15.7°C 54.0°F12.2°C 80% Calm Calm -- 30.09 in1019.0 mb - 0.00 in0.0 mm 0.00 in0.0 mm
09:30 PM 58.7°F14.8°C 53.5°F11.9°C 83% Calm Calm -- 30.10 in1019.3 mb - 0.00 in0.0 mm 0.00 in0.0 mm
10:00 PM 57.2°F14.0°C 52.4°F11.3°C 84% Calm Calm -- 30.10 in1019.3 mb - 0.00 in0.0 mm 0.00 in0.0 mm
10:30 PM 56.3°F13.5°C 53.1°F11.7°C 89% Calm Calm -- 30.11 in1019.6 mb - 0.00 in0.0 mm 0.00 in0.0 mm
11:00 PM 55.4°F13.0°C 52.9°F11.6°C 91% Calm Calm -- 30.11 in1019.6 mb - 0.00 in0.0 mm 0.00 in0.0 mm
11:30 PM 54.7°F12.6°C 52.7°F11.5°C 93% Calm Calm -- 30.11 in1019.6 mb - 0.00 in0.0 mm 0.00 in0.0 mm